Terminal Aerodrome Forecast
Issued by NWS

Home | Current Version | Previous Version | Text Only | Print | Product List | Glossary On
Versions: 1 2 3 4 5 6 7 8 9 10 11 12 13
000
FTUS43 KLSX 172320
TAFSUS
TAF
KSUS 172320Z 1800/1824 VRB03KT P6SM SCT045
     FM180100 VRB02KT P6SM SCT250
     FM181000 00000KT 4SM BR FEW250
     FM181300 VRB03KT P6SM FEW040=

USA.gov is the U.S. government's official web portal to all federal, state and local government web resources and services.